sensor_id;sensor_type;location;lat;lon;timestamp;pressure;altitude;pressure_sealevel;temperature;humidity
16094;BME280;8151;47.824;12.092;2023-07-20T00:01:08;96118.38;;;21.29;77.81
16094;BME280;8151;47.824;12.092;2023-07-20T00:03:37;96135.88;;;21.15;78.11
16094;BME280;8151;47.824;12.092;2023-07-20T00:06:05;96151.47;;;21.01;78.63
16094;BME280;8151;47.824;12.092;2023-07-20T00:08:34;96143.66;;;20.99;78.46
16094;BME280;8151;47.824;12.092;2023-07-20T00:11:02;96139.34;;;20.98;77.98
16094;BME280;8151;47.824;12.092;2023-07-20T00:13:31;96125.22;;;20.91;77.60
16094;BME280;8151;47.824;12.092;2023-07-20T00:15:59;96120.41;;;20.93;77.49
16094;BME280;8151;47.824;12.092;2023-07-20T00:18:29;96131.50;;;20.97;77.28
16094;BME280;8151;47.824;12.092;2023-07-20T00:20:58;96133.34;;;21.08;77.07
16094;BME280;8151;47.824;12.092;2023-07-20T00:23:27;96131.31;;;21.15;76.85
16094;BME280;8151;47.824;12.092;2023-07-20T00:25:56;96131.78;;;21.12;77.03
16094;BME280;8151;47.824;12.092;2023-07-20T00:28:24;96129.78;;;21.19;76.86
16094;BME280;8151;47.824;12.092;2023-07-20T00:30:52;96123.91;;;21.22;76.72
16094;BME280;8151;47.824;12.092;2023-07-20T00:33:21;96142.50;;;21.24;76.56
16094;BME280;8151;47.824;12.092;2023-07-20T00:35:51;96144.50;;;21.17;76.66
16094;BME280;8151;47.824;12.092;2023-07-20T00:38:20;96162.69;;;21.10;76.90
16094;BME280;8151;47.824;12.092;2023-07-20T00:40:48;96160.97;;;21.03;76.72
16094;BME280;8151;47.824;12.092;2023-07-20T00:43:17;96158.16;;;20.98;76.70
16094;BME280;8151;47.824;12.092;2023-07-20T00:45:46;96157.88;;;20.83;76.81
16094;BME280;8151;47.824;12.092;2023-07-20T00:48:15;96168.06;;;20.57;77.05
16094;BME280;8151;47.824;12.092;2023-07-20T00:50:44;96149.75;;;20.31;77.91
16094;BME280;8151;47.824;12.092;2023-07-20T00:53:15;96157.00;;;20.18;78.45
16094;BME280;8151;47.824;12.092;2023-07-20T00:55:44;96170.53;;;20.12;78.69
16094;BME280;8151;47.824;12.092;2023-07-20T00:58:12;96159.44;;;20.08;78.67
16094;BME280;8151;47.824;12.092;2023-07-20T01:00:40;96152.22;;;20.09;78.58
16094;BME280;8151;47.824;12.092;2023-07-20T01:03:19;96134.69;;;20.06;78.22
16094;BME280;8151;47.824;12.092;2023-07-20T01:05:53;96123.47;;;20.09;78.09
16094;BME280;8151;47.824;12.092;2023-07-20T01:08:32;96129.56;;;20.16;77.58
16094;BME280;8151;47.824;12.092;2023-07-20T01:11:10;96132.91;;;20.23;77.45
16094;BME280;8151;47.824;12.092;2023-07-20T01:13:41;96126.16;;;20.33;76.96
16094;BME280;8151;47.824;12.092;2023-07-20T01:16:10;96111.75;;;20.39;77.01
16094;BME280;8151;47.824;12.092;2023-07-20T01:18:42;96107.31;;;20.44;76.70
16094;BME280;8151;47.824;12.092;2023-07-20T01:21:15;96114.06;;;20.47;76.76
16094;BME280;8151;47.824;12.092;2023-07-20T01:24:00;96119.44;;;20.47;77.16
16094;BME280;8151;47.824;12.092;2023-07-20T01:26:44;96138.16;;;20.42;77.38
16094;BME280;8151;47.824;12.092;2023-07-20T01:29:29;96149.38;;;20.39;77.61
16094;BME280;8151;47.824;12.092;2023-07-20T01:32:04;96124.16;;;20.40;78.17
16094;BME280;8151;47.824;12.092;2023-07-20T01:34:35;96113.06;;;20.36;78.39
16094;BME280;8151;47.824;12.092;2023-07-20T01:37:05;96109.00;;;20.34;78.60
16094;BME280;8151;47.824;12.092;2023-07-20T01:39:35;96111.31;;;20.30;78.51
16094;BME280;8151;47.824;12.092;2023-07-20T01:42:04;96115.28;;;20.27;78.61
16094;BME280;8151;47.824;12.092;2023-07-20T01:44:33;96115.78;;;20.24;78.60
16094;BME280;8151;47.824;12.092;2023-07-20T01:47:12;96111.31;;;20.30;78.30
16094;BME280;8151;47.824;12.092;2023-07-20T01:49:41;96107.09;;;20.34;78.01
16094;BME280;8151;47.824;12.092;2023-07-20T01:52:11;96106.88;;;20.36;78.16
16094;BME280;8151;47.824;12.092;2023-07-20T01:54:39;96111.75;;;20.39;78.06
16094;BME280;8151;47.824;12.092;2023-07-20T01:57:08;96114.56;;;20.44;78.10
16094;BME280;8151;47.824;12.092;2023-07-20T01:59:36;96109.53;;;20.48;77.92
16094;BME280;8151;47.824;12.092;2023-07-20T02:02:04;96113.63;;;20.50;77.87
16094;BME280;8151;47.824;12.092;2023-07-20T02:04:34;96115.38;;;20.44;78.00
16094;BME280;8151;47.824;12.092;2023-07-20T02:07:03;96114.69;;;20.37;78.23
16094;BME280;8151;47.824;12.092;2023-07-20T02:09:31;96121.00;;;20.31;78.48
16094;BME280;8151;47.824;12.092;2023-07-20T02:12:00;96116.00;;;20.23;78.42
16094;BME280;8151;47.824;12.092;2023-07-20T02:14:28;96128.03;;;20.20;78.63
16094;BME280;8151;47.824;12.092;2023-07-20T02:17:06;96125.09;;;20.22;78.80
16094;BME280;8151;47.824;12.092;2023-07-20T02:19:40;96119.97;;;20.20;78.86
16094;BME280;8151;47.824;12.092;2023-07-20T02:22:08;96124.06;;;20.23;78.90
16094;BME280;8151;47.824;12.092;2023-07-20T02:24:37;96123.25;;;20.22;78.91
16094;BME280;8151;47.824;12.092;2023-07-20T02:27:05;96129.66;;;20.21;79.06
16094;BME280;8151;47.824;12.092;2023-07-20T02:29:34;96126.16;;;20.21;79.04
16094;BME280;8151;47.824;12.092;2023-07-20T02:32:03;96120.78;;;20.21;78.99
16094;BME280;8151;47.824;12.092;2023-07-20T02:34:32;96115.66;;;20.19;79.27
16094;BME280;8151;47.824;12.092;2023-07-20T02:37:03;96113.53;;;20.21;79.50
16094;BME280;8151;47.824;12.092;2023-07-20T02:39:32;96128.13;;;20.25;79.63
16094;BME280;8151;47.824;12.092;2023-07-20T02:42:00;96129.78;;;20.26;79.71
16094;BME280;8151;47.824;12.092;2023-07-20T02:44:28;96119.63;;;20.29;79.71
16094;BME280;8151;47.824;12.092;2023-07-20T02:46:57;96126.38;;;20.31;79.56
16094;BME280;8151;47.824;12.092;2023-07-20T02:49:26;96119.16;;;20.32;79.59
16094;BME280;8151;47.824;12.092;2023-07-20T02:51:54;96126.59;;;20.30;79.68
16094;BME280;8151;47.824;12.092;2023-07-20T02:54:24;96123.34;;;20.27;79.54
16094;BME280;8151;47.824;12.092;2023-07-20T02:56:52;96129.78;;;20.26;79.60
16094;BME280;8151;47.824;12.092;2023-07-20T02:59:21;96134.91;;;20.28;79.73
16094;BME280;8151;47.824;12.092;2023-07-20T03:01:49;96134.66;;;20.30;79.92
16094;BME280;8151;47.824;12.092;2023-07-20T03:04:18;96130.94;;;20.31;79.99
16094;BME280;8151;47.824;12.092;2023-07-20T03:06:47;96127.22;;;20.32;80.29
16094;BME280;8151;47.824;12.092;2023-07-20T03:09:15;96124.03;;;20.35;80.30
16094;BME280;8151;47.824;12.092;2023-07-20T03:11:45;96110.59;;;20.35;80.19
16094;BME280;8151;47.824;12.092;2023-07-20T03:14:13;96110.03;;;20.33;80.30
16094;BME280;8151;47.824;12.092;2023-07-20T03:16:42;96117.72;;;20.29;80.39
16094;BME280;8151;47.824;12.092;2023-07-20T03:19:10;96126.59;;;20.30;80.48
16094;BME280;8151;47.824;12.092;2023-07-20T03:21:39;96114.81;;;20.31;80.31
16094;BME280;8151;47.824;12.092;2023-07-20T03:24:08;96104.41;;;20.34;80.04
16094;BME280;8151;47.824;12.092;2023-07-20T03:26:37;96108.16;;;20.33;80.02
16094;BME280;8151;47.824;12.092;2023-07-20T03:29:06;96109.00;;;20.34;80.03
16094;BME280;8151;47.824;12.092;2023-07-20T03:31:42;96108.72;;;20.35;80.00
16094;BME280;8151;47.824;12.092;2023-07-20T03:34:11;96117.84;;;20.34;80.16
16094;BME280;8151;47.824;12.092;2023-07-20T03:36:42;96117.63;;;20.36;80.08
16094;BME280;8151;47.824;12.092;2023-07-20T03:39:10;96118.91;;;20.33;80.11
16094;BME280;8151;47.824;12.092;2023-07-20T03:41:39;96119.38;;;20.30;80.05
16094;BME280;8151;47.824;12.092;2023-07-20T03:44:09;96128.38;;;20.24;80.50
16094;BME280;8151;47.824;12.092;2023-07-20T03:46:38;96127.91;;;20.15;80.83
16094;BME280;8151;47.824;12.092;2023-07-20T03:49:07;96126.03;;;20.16;81.09
16094;BME280;8151;47.824;12.092;2023-07-20T03:51:36;96126.97;;;20.21;81.09
16094;BME280;8151;47.824;12.092;2023-07-20T03:54:04;96131.66;;;20.26;81.05
16094;BME280;8151;47.824;12.092;2023-07-20T03:56:33;96130.94;;;20.31;80.85
16094;BME280;8151;47.824;12.092;2023-07-20T03:59:02;96137.97;;;20.32;80.65
16094;BME280;8151;47.824;12.092;2023-07-20T04:01:42;96138.88;;;20.25;80.91
16094;BME280;8151;47.824;12.092;2023-07-20T04:04:11;96151.16;;;20.21;81.26
16094;BME280;8151;47.824;12.092;2023-07-20T04:06:39;96168.06;;;20.10;81.74
16094;BME280;8151;47.824;12.092;2023-07-20T04:09:08;96172.19;;;20.01;82.28
16094;BME280;8151;47.824;12.092;2023-07-20T04:11:36;96184.78;;;20.00;82.17
16094;BME280;8151;47.824;12.092;2023-07-20T04:14:05;96175.91;;;20.00;82.26
16094;BME280;8151;47.824;12.092;2023-07-20T04:16:34;96173.22;;;20.12;81.88
16094;BME280;8151;47.824;12.092;2023-07-20T04:19:03;96171.59;;;20.22;81.46
16094;BME280;8151;47.824;12.092;2023-07-20T04:21:32;96175.22;;;20.28;80.90
16094;BME280;8151;47.824;12.092;2023-07-20T04:24:00;96184.09;;;20.29;80.96
16094;BME280;8151;47.824;12.092;2023-07-20T04:26:29;96191.78;;;20.37;80.72
16094;BME280;8151;47.824;12.092;2023-07-20T04:29:03;96196.34;;;20.48;80.50
16094;BME280;8151;47.824;12.092;2023-07-20T04:31:31;96197.84;;;20.56;80.41
16094;BME280;8151;47.824;12.092;2023-07-20T04:34:01;96193.22;;;20.63;80.33
16094;BME280;8151;47.824;12.092;2023-07-20T04:36:31;96196.84;;;20.69;80.23
16094;BME280;8151;47.824;12.092;2023-07-20T04:38:59;96201.50;;;20.73;79.96
16094;BME280;8151;47.824;12.092;2023-07-20T04:41:27;96206.88;;;20.73;79.96
16094;BME280;8151;47.824;12.092;2023-07-20T04:43:57;96208.16;;;20.71;80.06
16094;BME280;8151;47.824;12.092;2023-07-20T04:46:36;96209.44;;;20.68;80.07
16094;BME280;8151;47.824;12.092;2023-07-20T04:49:04;96204.06;;;20.68;80.09
16094;BME280;8151;47.824;12.092;2023-07-20T04:51:34;96215.41;;;20.70;80.25
16094;BME280;8151;47.824;12.092;2023-07-20T04:54:02;96222.06;;;20.68;80.34
16094;BME280;8151;47.824;12.092;2023-07-20T04:56:31;96236.47;;;20.61;80.44
16094;BME280;8151;47.824;12.092;2023-07-20T04:59:00;96238.41;;;20.54;80.86
16094;BME280;8151;47.824;12.092;2023-07-20T05:01:28;96244.94;;;20.46;81.02
16094;BME280;8151;47.824;12.092;2023-07-20T05:03:57;96234.56;;;20.38;81.23
16094;BME280;8151;47.824;12.092;2023-07-20T05:06:26;96237.47;;;20.37;81.11
16094;BME280;8151;47.824;12.092;2023-07-20T05:08:55;96229.31;;;20.43;80.92
16094;BME280;8151;47.824;12.092;2023-07-20T05:11:24;96239.00;;;20.44;80.75
16094;BME280;8151;47.824;12.092;2023-07-20T05:13:53;96221.94;;;20.39;80.76
16094;BME280;8151;47.824;12.092;2023-07-20T05:16:21;96218.09;;;20.35;80.46
16094;BME280;8151;47.824;12.092;2023-07-20T05:18:50;96225.78;;;20.31;80.36
16094;BME280;8151;47.824;12.092;2023-07-20T05:21:20;96225.44;;;20.27;80.27
16094;BME280;8151;47.824;12.092;2023-07-20T05:23:48;96237.69;;;20.23;80.15
16094;BME280;8151;47.824;12.092;2023-07-20T05:26:18;96242.47;;;20.21;79.74
16094;BME280;8151;47.824;12.092;2023-07-20T05:28:48;96244.00;;;20.17;79.80
16094;BME280;8151;47.824;12.092;2023-07-20T05:31:17;96249.94;;;20.08;79.94
16094;BME280;8151;47.824;12.092;2023-07-20T05:33:45;96256.34;;;19.95;80.32
16094;BME280;8151;47.824;12.092;2023-07-20T05:36:14;96248.53;;;19.93;80.67
16094;BME280;8151;47.824;12.092;2023-07-20T05:38:42;96237.44;;;20.01;80.52
16094;BME280;8151;47.824;12.092;2023-07-20T05:41:11;96250.88;;;20.01;80.17
16094;BME280;8151;47.824;12.092;2023-07-20T05:43:41;96252.03;;;19.94;80.29
16094;BME280;8151;47.824;12.092;2023-07-20T05:46:09;96257.25;;;19.89;80.25
16094;BME280;8151;47.824;12.092;2023-07-20T05:48:37;96255.63;;;19.88;80.21
16094;BME280;8151;47.824;12.092;2023-07-20T05:51:09;96260.28;;;19.80;80.13
16094;BME280;8151;47.824;12.092;2023-07-20T05:53:37;96255.84;;;19.74;80.22
16094;BME280;8151;47.824;12.092;2023-07-20T05:56:07;96258.44;;;19.62;80.18
16094;BME280;8151;47.824;12.092;2023-07-20T05:58:37;96256.69;;;19.56;80.66
16094;BME280;8151;47.824;12.092;2023-07-20T06:01:07;96256.56;;;19.63;80.47
16094;BME280;8151;47.824;12.092;2023-07-20T06:03:35;96268.25;;;19.68;80.28
16094;BME280;8151;47.824;12.092;2023-07-20T06:06:04;96257.59;;;19.80;79.81
16094;BME280;8151;47.824;12.092;2023-07-20T06:08:33;96250.72;;;19.84;79.70
16094;BME280;8151;47.824;12.092;2023-07-20T06:11:02;96267.19;;;19.88;79.89
16094;BME280;8151;47.824;12.092;2023-07-20T06:13:30;96258.91;;;19.90;79.90
16094;BME280;8151;47.824;12.092;2023-07-20T06:15:59;96265.44;;;19.94;80.09
16094;BME280;8151;47.824;12.092;2023-07-20T06:18:29;96262.78;;;19.94;79.71
16094;BME280;8151;47.824;12.092;2023-07-20T06:20:57;96261.38;;;19.91;79.61
16094;BME280;8151;47.824;12.092;2023-07-20T06:23:25;96255.75;;;19.93;79.59
16094;BME280;8151;47.824;12.092;2023-07-20T06:25:54;96257.97;;;19.96;79.49
16094;BME280;8151;47.824;12.092;2023-07-20T06:28:22;96267.91;;;19.95;79.65
16094;BME280;8151;47.824;12.092;2023-07-20T06:30:51;96261.13;;;19.93;79.76
16094;BME280;8151;47.824;12.092;2023-07-20T06:33:19;96264.28;;;19.90;79.78
16094;BME280;8151;47.824;12.092;2023-07-20T06:35:49;96253.97;;;19.86;79.77
16094;BME280;8151;47.824;12.092;2023-07-20T06:38:20;96259.84;;;19.83;79.73
16094;BME280;8151;47.824;12.092;2023-07-20T06:40:52;96255.34;;;19.77;79.61
16094;BME280;8151;47.824;12.092;2023-07-20T06:43:21;96246.50;;;19.77;79.68
16094;BME280;8151;47.824;12.092;2023-07-20T06:45:52;96236.56;;;19.77;79.74
16094;BME280;8151;47.824;12.092;2023-07-20T06:48:21;96242.56;;;19.79;79.62
16094;BME280;8151;47.824;12.092;2023-07-20T06:50:51;96241.03;;;19.83;79.55
16094;BME280;8151;47.824;12.092;2023-07-20T06:53:21;96240.19;;;19.83;79.63
16094;BME280;8151;47.824;12.092;2023-07-20T06:55:49;96240.91;;;19.90;79.64
16094;BME280;8151;47.824;12.092;2023-07-20T06:58:17;96248.41;;;20.00;79.43
16094;BME280;8151;47.824;12.092;2023-07-20T07:00:47;96239.53;;;19.99;79.25
16094;BME280;8151;47.824;12.092;2023-07-20T07:03:15;96240.72;;;20.03;79.20
16094;BME280;8151;47.824;12.092;2023-07-20T07:05:44;96241.31;;;20.05;79.00
16094;BME280;8151;47.824;12.092;2023-07-20T07:08:19;96245.38;;;20.08;78.89
16094;BME280;8151;47.824;12.092;2023-07-20T07:10:47;96249.13;;;20.07;79.12
16094;BME280;8151;47.824;12.092;2023-07-20T07:13:15;96244.34;;;20.09;79.10
16094;BME280;8151;47.824;12.092;2023-07-20T07:15:44;96253.81;;;20.12;79.11
16094;BME280;8151;47.824;12.092;2023-07-20T07:18:13;96250.88;;;20.13;79.47
16094;BME280;8151;47.824;12.092;2023-07-20T07:20:41;96249.28;;;20.24;79.09
16094;BME280;8151;47.824;12.092;2023-07-20T07:23:10;96245.66;;;20.30;78.81
16094;BME280;8151;47.824;12.092;2023-07-20T07:25:42;96248.00;;;20.38;78.78
16094;BME280;8151;47.824;12.092;2023-07-20T07:28:10;96254.19;;;20.39;78.62
16094;BME280;8151;47.824;12.092;2023-07-20T07:30:39;96247.06;;;20.44;78.12
16094;BME280;8151;47.824;12.092;2023-07-20T07:33:07;96250.69;;;20.50;77.87
16094;BME280;8151;47.824;12.092;2023-07-20T07:35:36;96249.97;;;20.55;77.68
16094;BME280;8151;47.824;12.092;2023-07-20T07:38:04;96250.31;;;20.58;77.75
16094;BME280;8151;47.824;12.092;2023-07-20T07:40:54;96244.38;;;20.68;77.46
16094;BME280;8151;47.824;12.092;2023-07-20T07:43:23;96246.63;;;20.71;77.54
16094;BME280;8151;47.824;12.092;2023-07-20T07:45:53;96243.78;;;20.78;77.48
16094;BME280;8151;47.824;12.092;2023-07-20T07:48:22;96244.38;;;20.80;77.42
16094;BME280;8151;47.824;12.092;2023-07-20T07:50:53;96249.28;;;20.83;77.57
16094;BME280;8151;47.824;12.092;2023-07-20T07:53:22;96244.34;;;20.92;77.64
16094;BME280;8151;47.824;12.092;2023-07-20T07:55:53;96242.13;;;21.00;77.19
16094;BME280;8151;47.824;12.092;2023-07-20T07:58:23;96235.78;;;21.07;77.03
16094;BME280;8151;47.824;12.092;2023-07-20T08:00:52;96235.19;;;21.16;76.64
16094;BME280;8151;47.824;12.092;2023-07-20T08:03:20;96239.59;;;21.22;76.45
16094;BME280;8151;47.824;12.092;2023-07-20T08:05:53;96245.09;;;21.28;76.02
16094;BME280;8151;47.824;12.092;2023-07-20T08:08:22;96248.72;;;21.33;76.12
16094;BME280;8151;47.824;12.092;2023-07-20T08:10:53;96245.41;;;21.43;75.75
16094;BME280;8151;47.824;12.092;2023-07-20T08:13:23;96240.72;;;21.50;75.95
16094;BME280;8151;47.824;12.092;2023-07-20T08:15:51;96231.75;;;21.61;75.52
16094;BME280;8151;47.824;12.092;2023-07-20T08:18:20;96246.34;;;21.77;74.96
16094;BME280;8151;47.824;12.092;2023-07-20T08:20:49;96244.16;;;21.91;74.47
16094;BME280;8151;47.824;12.092;2023-07-20T08:23:18;96249.94;;;22.00;73.96
16094;BME280;8151;47.824;12.092;2023-07-20T08:25:46;96252.97;;;22.03;73.89
16094;BME280;8151;47.824;12.092;2023-07-20T08:28:16;96244.97;;;22.09;74.06
16094;BME280;8151;47.824;12.092;2023-07-20T08:30:46;96247.81;;;22.19;73.90
16094;BME280;8151;47.824;12.092;2023-07-20T08:33:18;96244.28;;;22.30;73.84
16094;BME280;8151;47.824;12.092;2023-07-20T08:35:47;96249.34;;;22.44;73.62
16094;BME280;8151;47.824;12.092;2023-07-20T08:38:16;96249.22;;;22.55;73.27
16094;BME280;8151;47.824;12.092;2023-07-20T08:40:45;96244.16;;;22.59;73.00
16094;BME280;8151;47.824;12.092;2023-07-20T08:43:14;96247.34;;;22.56;73.02
16094;BME280;8151;47.824;12.092;2023-07-20T08:45:47;96243.94;;;22.60;72.88
16094;BME280;8151;47.824;12.092;2023-07-20T08:48:18;96230.75;;;22.64;72.69
16094;BME280;8151;47.824;12.092;2023-07-20T08:50:51;96235.66;;;22.67;72.36
16094;BME280;8151;47.824;12.092;2023-07-20T08:53:20;96229.69;;;22.65;71.76
16094;BME280;8151;47.824;12.092;2023-07-20T08:55:51;96229.13;;;22.63;71.06
16094;BME280;8151;47.824;12.092;2023-07-20T08:58:20;96228.56;;;22.61;70.72
16094;BME280;8151;47.824;12.092;2023-07-20T09:00:51;96227.47;;;22.62;70.05
16094;BME280;8151;47.824;12.092;2023-07-20T09:03:21;96229.69;;;22.65;69.49
16094;BME280;8151;47.824;12.092;2023-07-20T09:05:49;96222.25;;;22.72;69.21
16094;BME280;8151;47.824;12.092;2023-07-20T09:08:18;96228.53;;;22.78;68.51
16094;BME280;8151;47.824;12.092;2023-07-20T09:10:46;96232.09;;;22.84;67.87
16094;BME280;8151;47.824;12.092;2023-07-20T09:13:15;96230.47;;;22.83;67.10
16094;BME280;8151;47.824;12.092;2023-07-20T09:15:47;96235.38;;;22.86;66.84
16094;BME280;8151;47.824;12.092;2023-07-20T09:18:24;96233.81;;;22.90;66.05
16094;BME280;8151;47.824;12.092;2023-07-20T09:20:53;96231.00;;;23.02;65.49
16094;BME280;8151;47.824;12.092;2023-07-20T09:23:30;96222.59;;;23.20;64.78
16094;BME280;8151;47.824;12.092;2023-07-20T09:25:59;96228.25;;;23.41;64.03
16094;BME280;8151;47.824;12.092;2023-07-20T09:28:28;96225.31;;;23.47;63.69
16094;BME280;8151;47.824;12.092;2023-07-20T09:30:56;96228.28;;;23.46;62.61
16094;BME280;8151;47.824;12.092;2023-07-20T09:33:27;96227.38;;;23.35;62.42
16094;BME280;8151;47.824;12.092;2023-07-20T09:36:02;96231.31;;;23.27;61.88
16094;BME280;8151;47.824;12.092;2023-07-20T09:38:51;96228.44;;;23.12;61.80
16094;BME280;8151;47.824;12.092;2023-07-20T09:41:22;96218.78;;;23.16;61.44
16094;BME280;8151;47.824;12.092;2023-07-20T09:43:56;96211.63;;;23.27;60.90
16094;BME280;8151;47.824;12.092;2023-07-20T09:46:24;96211.16;;;23.35;60.43
16094;BME280;8151;47.824;12.092;2023-07-20T09:48:57;96210.69;;;23.43;60.36
16094;BME280;8151;47.824;12.092;2023-07-20T09:51:28;96207.81;;;23.50;60.49
16094;BME280;8151;47.824;12.092;2023-07-20T09:53:58;96211.13;;;23.57;60.10
16094;BME280;8151;47.824;12.092;2023-07-20T09:56:30;96205.53;;;23.64;59.81
16094;BME280;8151;47.824;12.092;2023-07-20T09:58:59;96205.63;;;23.74;60.10
16094;BME280;8151;47.824;12.092;2023-07-20T10:01:28;96207.81;;;23.77;59.38
16094;BME280;8151;47.824;12.092;2023-07-20T10:04:03;96210.09;;;23.63;59.12
16094;BME280;8151;47.824;12.092;2023-07-20T10:06:32;96207.38;;;23.63;59.16
16094;BME280;8151;47.824;12.092;2023-07-20T10:09:03;96196.41;;;23.70;58.94
16094;BME280;8151;47.824;12.092;2023-07-20T10:11:35;96198.31;;;23.74;58.28
16094;BME280;8151;47.824;12.092;2023-07-20T10:14:05;96203.03;;;23.84;58.62
16094;BME280;8151;47.824;12.092;2023-07-20T10:16:36;96196.16;;;23.98;58.15
16094;BME280;8151;47.824;12.092;2023-07-20T10:19:12;96196.72;;;24.06;57.82
16094;BME280;8151;47.824;12.092;2023-07-20T10:21:48;96196.47;;;24.07;57.71
16094;BME280;8151;47.824;12.092;2023-07-20T10:24:23;96192.78;;;24.18;57.39
16094;BME280;8151;47.824;12.092;2023-07-20T10:26:52;96203.41;;;24.30;57.29
16094;BME280;8151;47.824;12.092;2023-07-20T10:29:22;96202.34;;;24.36;56.80
16094;BME280;8151;47.824;12.092;2023-07-20T10:31:51;96192.09;;;24.38;56.59
16094;BME280;8151;47.824;12.092;2023-07-20T10:34:30;96192.88;;;24.34;56.61
16094;BME280;8151;47.824;12.092;2023-07-20T10:36:59;96189.31;;;24.28;56.96
16094;BME280;8151;47.824;12.092;2023-07-20T10:39:30;96181.78;;;24.30;56.60
16094;BME280;8151;47.824;12.092;2023-07-20T10:42:02;96184.78;;;24.34;56.62
16094;BME280;8151;47.824;12.092;2023-07-20T10:44:31;96186.78;;;24.49;56.72
16094;BME280;8151;47.824;12.092;2023-07-20T10:47:00;96186.59;;;24.61;56.30
16094;BME280;8151;47.824;12.092;2023-07-20T10:49:32;96179.59;;;24.65;56.35
16094;BME280;8151;47.824;12.092;2023-07-20T10:52:04;96180.94;;;24.67;55.70
16094;BME280;8151;47.824;12.092;2023-07-20T10:54:34;96172.56;;;24.69;55.64
16094;BME280;8151;47.824;12.092;2023-07-20T10:57:29;96179.06;;;24.73;55.60
16094;BME280;8151;47.824;12.092;2023-07-20T11:00:09;96177.19;;;24.73;55.79
16094;BME280;8151;47.824;12.092;2023-07-20T11:02:43;96184.50;;;24.73;55.42
16094;BME280;8151;47.824;12.092;2023-07-20T11:05:34;96181.19;;;24.66;54.18
16094;BME280;8151;47.824;12.092;2023-07-20T11:08:04;96176.28;;;24.58;54.30
16094;BME280;8151;47.824;12.092;2023-07-20T11:10:33;96178.38;;;24.50;54.04
16094;BME280;8151;47.824;12.092;2023-07-20T11:13:18;96175.53;;;24.62;53.54
16094;BME280;8151;47.824;12.092;2023-07-20T11:15:52;96167.41;;;24.67;53.89
16094;BME280;8151;47.824;12.092;2023-07-20T11:18:29;96171.50;;;24.75;53.15
16094;BME280;8151;47.824;12.092;2023-07-20T11:21:07;96160.72;;;24.85;52.58
16094;BME280;8151;47.824;12.092;2023-07-20T11:23:38;96165.09;;;24.96;52.11
16094;BME280;8151;47.824;12.092;2023-07-20T11:26:06;96157.81;;;24.97;51.75
16094;BME280;8151;47.824;12.092;2023-07-20T11:28:36;96158.59;;;24.92;51.53
16094;BME280;8151;47.824;12.092;2023-07-20T11:31:04;96159.13;;;24.89;51.85
16094;BME280;8151;47.824;12.092;2023-07-20T11:33:32;96153.44;;;24.91;51.52
16094;BME280;8151;47.824;12.092;2023-07-20T11:36:03;96139.94;;;24.96;51.56
16094;BME280;8151;47.824;12.092;2023-07-20T11:38:53;96140.50;;;25.08;51.67
16094;BME280;8151;47.824;12.092;2023-07-20T11:41:22;96143.75;;;25.05;51.77
16094;BME280;8151;47.824;12.092;2023-07-20T11:43:50;96140.25;;;25.05;51.70
16094;BME280;8151;47.824;12.092;2023-07-20T11:46:19;96144.03;;;25.14;51.46
16094;BME280;8151;47.824;12.092;2023-07-20T11:48:48;96140.88;;;25.27;50.99
16094;BME280;8151;47.824;12.092;2023-07-20T11:51:18;96133.56;;;25.33;51.03
16094;BME280;8151;47.824;12.092;2023-07-20T11:53:47;96131.97;;;25.42;51.24
16094;BME280;8151;47.824;12.092;2023-07-20T11:56:16;96132.50;;;25.65;50.54
16094;BME280;8151;47.824;12.092;2023-07-20T11:58:45;96132.50;;;25.80;50.15
16094;BME280;8151;47.824;12.092;2023-07-20T12:01:13;96124.13;;;25.87;50.39
16094;BME280;8151;47.824;12.092;2023-07-20T12:03:42;96126.03;;;25.91;50.48
16094;BME280;8151;47.824;12.092;2023-07-20T12:06:13;96115.72;;;25.78;50.25
16094;BME280;8151;47.824;12.092;2023-07-20T12:08:43;96110.03;;;25.64;50.33
16094;BME280;8151;47.824;12.092;2023-07-20T12:11:12;96110.84;;;25.54;50.07
16094;BME280;8151;47.824;12.092;2023-07-20T12:13:43;96109.50;;;25.52;49.95
16094;BME280;8151;47.824;12.092;2023-07-20T12:16:13;96106.22;;;25.55;49.53
16094;BME280;8151;47.824;12.092;2023-07-20T12:18:42;96097.03;;;25.51;49.87
16094;BME280;8151;47.824;12.092;2023-07-20T12:21:11;96094.34;;;25.61;49.54
16094;BME280;8151;47.824;12.092;2023-07-20T12:23:46;96089.72;;;25.72;49.68
16094;BME280;8151;47.824;12.092;2023-07-20T12:26:15;96088.34;;;25.85;49.42
16094;BME280;8151;47.824;12.092;2023-07-20T12:28:43;96086.72;;;25.84;49.32
16094;BME280;8151;47.824;12.092;2023-07-20T12:31:12;96088.38;;;25.74;49.48
16094;BME280;8151;47.824;12.092;2023-07-20T12:33:41;96083.50;;;25.77;49.70
16094;BME280;8151;47.824;12.092;2023-07-20T12:36:09;96082.97;;;25.74;49.36
16094;BME280;8151;47.824;12.092;2023-07-20T12:38:38;96081.88;;;25.65;49.34
16094;BME280;8151;47.824;12.092;2023-07-20T12:41:11;96072.09;;;25.64;49.37
16094;BME280;8151;47.824;12.092;2023-07-20T12:43:44;96070.47;;;25.79;49.71
16094;BME280;8151;47.824;12.092;2023-07-20T12:46:12;96071.03;;;25.91;49.49
16094;BME280;8151;47.824;12.092;2023-07-20T12:48:41;96067.22;;;26.02;49.59
16094;BME280;8151;47.824;12.092;2023-07-20T12:51:13;96069.38;;;26.16;49.89
16094;BME280;8151;47.824;12.092;2023-07-20T12:53:42;96067.16;;;26.28;49.74
16094;BME280;8151;47.824;12.092;2023-07-20T12:56:11;96056.53;;;26.42;50.00
16094;BME280;8151;47.824;12.092;2023-07-20T12:58:43;96061.84;;;26.73;49.72
16094;BME280;8151;47.824;12.092;2023-07-20T13:01:11;96065.03;;;26.90;49.30
16094;BME280;8151;47.824;12.092;2023-07-20T13:03:41;96061.72;;;26.98;49.19
16094;BME280;8151;47.824;12.092;2023-07-20T13:06:12;96048.56;;;27.16;49.03
16094;BME280;8151;47.824;12.092;2023-07-20T13:08:43;96042.44;;;27.39;48.53
16094;BME280;8151;47.824;12.092;2023-07-20T13:11:13;96048.28;;;27.57;48.28
16094;BME280;8151;47.824;12.092;2023-07-20T13:13:42;96050.16;;;27.61;48.13
16094;BME280;8151;47.824;12.092;2023-07-20T13:16:10;96049.53;;;27.69;47.65